| Time | Avg. Air Temp | Dew Point | Avg. Rel Humidity | Avg. 2 Min Wind Speed | Max Gust Velocity | MGV Time | MGV Direction | Avg. Spot Wind Velocity |
|---|---|---|---|---|---|---|---|---|
| 2026-05-05 01:35:00 | 1° C | -7° C | 56% | 23 km/h | 29 km/h | 01:33:00 | NE | 21 km/h |
| 00:35:00 | 1° C | -6° C | 56% | 30 km/h | 38 km/h | 00:31:00 | NE | 32 km/h |
| 23:35:00 | 1° C | -6° C | 59% | 25 km/h | 34 km/h | 23:31:00 | NE | 18 km/h |
| 22:35:00 | 2° C | -5° C | 60% | 23 km/h | 35 km/h | 22:35:00 | N | 20 km/h |
| 21:35:00 | 3° C | -5° C | 58% | 23 km/h | 30 km/h | 21:35:00 | NE | 14 km/h |
| 20:35:00 | 3° C | -4° C | 57% | 29 km/h | 39 km/h | 20:35:00 | NE | 27 km/h |
| 19:35:00 | 4° C | -4° C | 55% | 15 km/h | 24 km/h | 19:34:00 | NE | 17 km/h |
| 18:35:00 | 6° C | -3° C | 53% | 0 km/h | 3 km/h | 18:35:00 | N | 1 km/h |
| 17:35:00 | 6° C | -3° C | 50% | 3 km/h | 10 km/h | 17:31:00 | NW | 3 km/h |
| 16:35:00 | 6° C | -3° C | 53% | 4 km/h | 7 km/h | 16:34:00 | W | 2 km/h |
| 15:35:00 | 6° C | -3° C | 53% | 6 km/h | 21 km/h | 15:32:00 | NE | 6 km/h |
| 14:35:00 | 6° C | -4° C | 53% | 12 km/h | 16 km/h | 14:33:00 | NE | 12 km/h |
| 13:35:00 | 6° C | -3° C | 52% | 1 km/h | 5 km/h | 13:31:00 | NE | 1 km/h |
| 12:35:00 | 6° C | -3° C | 52% | 6 km/h | 12 km/h | 12:33:00 | NE | 4 km/h |
| 11:35:00 | 4° C | -3° C | 58% | 12 km/h | 19 km/h | 11:31:00 | NE | 13 km/h |
| 10:35:00 | 3° C | -3° C | 61% | 31 km/h | 36 km/h | 10:33:00 | NE | 33 km/h |
| 09:35:00 | 3° C | -3° C | 62% | 29 km/h | 40 km/h | 09:31:00 | NE | 30 km/h |
| 08:35:00 | 3° C | -3° C | 61% | 32 km/h | 37 km/h | 08:31:00 | NE | 28 km/h |
| 07:35:00 | 3° C | -4° C | 61% | 36 km/h | 43 km/h | 07:34:00 | NE | 36 km/h |
| 06:35:00 | 3° C | -4° C | 61% | 29 km/h | 33 km/h | 06:35:00 | NE | 25 km/h |
| 05:35:00 | 3° C | -4° C | 59% | 23 km/h | 25 km/h | 05:31:00 | NE | 23 km/h |
| 04:35:00 | 4° C | -4° C | 54% | 23 km/h | 24 km/h | 04:35:00 | NE | 23 km/h |
| 03:35:00 | 4° C | -4° C | 58% | 6 km/h | 14 km/h | 03:32:00 | E | 8 km/h |
| 02:35:00 | 4° C | -4° C | 56% | 21 km/h | 26 km/h | 02:35:00 | NE | 15 km/h |
Subpeak Weather
| Time | Avg. Air Temp | Dew Point | Avg. Rel Humidity | Avg. 2 Min Wind Speed | Max Gust Velocity | MGV Time | MGV Direction | Avg. Spot Wind Velocity |
|---|---|---|---|---|---|---|---|---|
| 2026-05-05 01:35:00 | 1° C | -7° C | 56% | 23 km/h | 29 km/h | 01:33:00 | NE | 21 km/h |
| 01:30:00 | 1° C | -7° C | 55% | 26 km/h | 35 km/h | 01:26:00 | N | 27 km/h |
| 01:25:00 | 1° C | -7° C | 53% | 27 km/h | 33 km/h | 01:21:00 | NE | 23 km/h |
| 01:20:00 | 1° C | -7° C | 56% | 28 km/h | 35 km/h | 01:20:00 | NE | 28 km/h |
| 01:15:00 | 1° C | -7° C | 55% | 23 km/h | 40 km/h | 01:12:00 | NE | 28 km/h |
| 01:10:00 | 1° C | -7° C | 55% | 24 km/h | 43 km/h | 01:06:00 | NE | 29 km/h |
| 01:05:00 | 1° C | -7° C | 55% | 35 km/h | 44 km/h | 01:01:00 | NE | 36 km/h |
| 01:00:00 | 1° C | -7° C | 55% | 41 km/h | 46 km/h | 00:56:00 | NE | 42 km/h |
| 00:55:00 | 1° C | -7° C | 56% | 39 km/h | 46 km/h | 00:54:00 | NE | 39 km/h |
| 00:50:00 | 1° C | -7° C | 55% | 36 km/h | 41 km/h | 00:50:00 | NE | 35 km/h |
| 00:45:00 | 1° C | -7° C | 55% | 38 km/h | 43 km/h | 00:44:00 | NE | 37 km/h |
| 00:40:00 | 1° C | -7° C | 56% | 34 km/h | 44 km/h | 00:36:00 | NE | 36 km/h |
| 00:35:00 | 1° C | -6° C | 56% | 30 km/h | 38 km/h | 00:31:00 | NE | 32 km/h |




